createdAt,value
2023-02-09T00:01:24.683Z,25.80
2023-02-09T00:03:52.182Z,25.57
2023-02-09T00:06:21.355Z,26.07
2023-02-09T00:08:47.909Z,27.07
2023-02-09T00:11:42.330Z,25.90
2023-02-09T00:14:10.508Z,26.87
2023-02-09T00:16:36.983Z,26.50
2023-02-09T00:19:03.223Z,27.93
2023-02-09T00:21:29.721Z,25.60
2023-02-09T00:23:57.584Z,26.60
2023-02-09T00:26:24.330Z,26.10
2023-02-09T00:28:50.483Z,26.77
2023-02-09T00:31:19.407Z,26.07
2023-02-09T00:33:45.770Z,25.87
2023-02-09T00:36:13.726Z,25.77
2023-02-09T00:38:43.768Z,26.43
2023-02-09T00:41:11.792Z,26.17
2023-02-09T00:43:38.174Z,25.93
2023-02-09T00:46:05.191Z,28.17
2023-02-09T00:48:31.601Z,26.53
2023-02-09T00:50:58.695Z,25.97
2023-02-09T00:53:25.288Z,27.30
2023-02-09T00:55:52.301Z,28.10
2023-02-09T00:58:19.429Z,24.73
2023-02-09T01:00:46.237Z,26.53
2023-02-09T01:03:12.474Z,26.90
2023-02-09T01:05:40.241Z,29.27
2023-02-09T01:08:06.446Z,25.30
2023-02-09T01:10:32.999Z,26.57
2023-02-09T01:12:59.127Z,25.87
2023-02-09T01:15:27.856Z,25.97
2023-02-09T01:17:53.974Z,26.20
2023-02-09T01:20:20.524Z,25.70
2023-02-09T01:22:46.654Z,25.27
2023-02-09T01:25:13.061Z,26.23
2023-02-09T01:27:39.714Z,26.33
2023-02-09T01:30:06.635Z,25.63
2023-02-09T01:32:35.209Z,27.60
2023-02-09T01:35:01.684Z,30.07
2023-02-09T01:37:27.822Z,27.87
2023-02-09T01:39:54.628Z,27.40
2023-02-09T01:42:21.115Z,28.00
2023-02-09T01:45:32.734Z,26.80
2023-02-09T01:48:03.036Z,28.87
2023-02-09T01:50:36.516Z,27.63
2023-02-09T01:53:03.377Z,27.53
2023-02-09T01:55:34.058Z,28.07
2023-02-09T01:58:06.417Z,27.63
2023-02-09T02:00:33.273Z,25.70
2023-02-09T02:03:04.444Z,28.20
2023-02-09T02:05:36.217Z,27.60
2023-02-09T02:08:13.857Z,25.47
2023-02-09T02:10:40.567Z,25.87
2023-02-09T02:13:06.781Z,26.43
2023-02-09T02:16:12.154Z,26.67
2023-02-09T02:19:08.974Z,26.77
2023-02-09T02:21:52.225Z,26.70
2023-02-09T02:24:39.913Z,26.30
2023-02-09T02:27:09.947Z,25.90
2023-02-09T02:29:36.049Z,25.63
2023-02-09T02:32:02.488Z,25.30
2023-02-09T02:34:53.635Z,26.33
2023-02-09T02:37:31.371Z,26.27
2023-02-09T02:40:11.947Z,27.47
2023-02-09T02:43:15.842Z,28.27
2023-02-09T02:45:44.647Z,26.70
2023-02-09T02:48:17.863Z,24.90
2023-02-09T02:50:53.752Z,26.63
2023-02-09T02:53:25.499Z,27.67
2023-02-09T02:55:54.202Z,26.80
2023-02-09T02:58:23.062Z,30.13
2023-02-09T03:00:51.463Z,29.70
2023-02-09T03:03:22.224Z,29.43
2023-02-09T03:05:49.632Z,27.23
2023-02-09T03:08:16.123Z,26.20
2023-02-09T03:10:43.116Z,26.43
2023-02-09T03:13:36.640Z,27.47
2023-02-09T03:16:17.543Z,27.37
2023-02-09T03:19:05.920Z,26.63
2023-02-09T03:21:41.435Z,27.47
2023-02-09T03:24:29.963Z,26.73
2023-02-09T03:27:17.799Z,29.27
2023-02-09T03:29:48.924Z,28.00
2023-02-09T03:32:17.141Z,26.53
2023-02-09T03:34:44.854Z,26.73
2023-02-09T03:37:11.116Z,29.90
2023-02-09T03:39:37.743Z,25.70
2023-02-09T03:42:04.128Z,27.87
2023-02-09T03:44:30.855Z,27.93
2023-02-09T03:46:59.959Z,27.17
2023-02-09T03:49:30.916Z,26.20
2023-02-09T03:51:59.911Z,27.50
2023-02-09T03:54:27.817Z,27.80
2023-02-09T03:56:53.937Z,28.50
2023-02-09T03:59:24.697Z,27.63
2023-02-09T04:01:52.969Z,30.70
2023-02-09T04:04:20.308Z,29.90
2023-02-09T04:06:46.884Z,31.63
2023-02-09T04:09:13.625Z,28.43
2023-02-09T04:11:39.750Z,29.33
2023-02-09T04:14:08.350Z,27.50
2023-02-09T04:16:35.486Z,27.70
2023-02-09T04:19:02.911Z,26.07
2023-02-09T04:21:29.117Z,29.07
2023-02-09T04:23:55.651Z,27.87
2023-02-09T04:26:21.894Z,28.63
2023-02-09T04:28:48.790Z,29.70
2023-02-09T04:31:15.445Z,26.73
2023-02-09T04:33:42.045Z,27.90
2023-02-09T04:36:08.747Z,27.30
2023-02-09T04:38:35.607Z,27.73
2023-02-09T04:41:02.942Z,27.03
2023-02-09T04:43:30.120Z,29.17
2023-02-09T04:45:56.963Z,28.63
2023-02-09T04:48:24.927Z,27.53
2023-02-09T04:50:51.261Z,29.47
2023-02-09T04:53:18.864Z,28.50
2023-02-09T04:55:46.773Z,29.07
2023-02-09T04:58:34.386Z,28.60
2023-02-09T05:01:01.564Z,28.03
2023-02-09T05:03:28.708Z,27.73
2023-02-09T05:06:01.666Z,28.80
2023-02-09T05:08:28.594Z,29.03
2023-02-09T05:10:55.291Z,28.63
2023-02-09T05:13:23.810Z,29.40
2023-02-09T05:15:50.144Z,29.00
2023-02-09T05:18:16.757Z,30.43
2023-02-09T05:20:43.747Z,30.53
2023-02-09T05:23:10.840Z,28.40
2023-02-09T05:25:37.377Z,30.03
2023-02-09T05:28:04.094Z,28.77
2023-02-09T05:30:31.924Z,27.53
2023-02-09T05:32:58.427Z,27.10
2023-02-09T05:35:24.915Z,28.33
2023-02-09T05:37:51.364Z,27.10
2023-02-09T05:40:17.652Z,27.77
2023-02-09T05:42:44.166Z,26.70
2023-02-09T05:45:10.423Z,28.93
2023-02-09T05:47:36.992Z,26.90
2023-02-09T05:50:03.419Z,26.17
2023-02-09T05:52:30.038Z,27.77
2023-02-09T05:54:56.258Z,28.50
2023-02-09T05:57:22.933Z,26.93
2023-02-09T05:59:49.159Z,28.07
2023-02-09T06:02:15.726Z,27.17
2023-02-09T06:04:42.181Z,30.80
2023-02-09T06:07:10.934Z,31.83
2023-02-09T06:09:37.969Z,30.90
2023-02-09T06:12:04.716Z,30.70
2023-02-09T06:14:30.923Z,34.67
2023-02-09T06:16:57.810Z,32.70
2023-02-09T06:19:24.346Z,31.90
2023-02-09T06:21:51.662Z,32.37
2023-02-09T06:24:18.508Z,29.93
2023-02-09T06:26:45.953Z,30.93
2023-02-09T06:29:12.397Z,29.50
2023-02-09T06:31:41.286Z,26.33
2023-02-09T06:34:08.307Z,28.00
2023-02-09T06:36:34.990Z,26.43
2023-02-09T06:39:01.284Z,27.83
2023-02-09T06:41:27.900Z,29.70
2023-02-09T06:43:54.687Z,28.43
2023-02-09T06:46:21.250Z,30.03
2023-02-09T06:48:47.927Z,34.90
2023-02-09T06:51:16.420Z,29.23
2023-02-09T06:53:43.744Z,28.37
2023-02-09T06:56:11.958Z,26.93
2023-02-09T06:58:39.920Z,27.87
2023-02-09T07:01:09.383Z,39.23
2023-02-09T07:03:36.810Z,55.20
2023-02-09T07:06:05.750Z,103.40
2023-02-09T07:08:32.647Z,89.33
2023-02-09T07:11:03.702Z,58.07
2023-02-09T07:13:31.268Z,39.13
2023-02-09T07:15:59.481Z,34.63
2023-02-09T07:18:27.500Z,31.13
2023-02-09T07:20:55.602Z,26.53
2023-02-09T07:23:23.496Z,28.60
2023-02-09T07:25:50.181Z,26.67
2023-02-09T07:28:19.932Z,26.50
2023-02-09T07:30:48.537Z,27.20
2023-02-09T07:33:15.957Z,27.93
2023-02-09T07:35:42.353Z,27.47
2023-02-09T07:38:09.648Z,26.47
2023-02-09T07:40:37.616Z,24.10
2023-02-09T07:43:05.877Z,26.37
2023-02-09T07:45:32.984Z,30.03
2023-02-09T07:48:04.158Z,27.43
2023-02-09T07:50:34.995Z,25.57
2023-02-09T07:53:02.797Z,26.17
2023-02-09T07:55:29.685Z,26.30
2023-02-09T07:57:58.181Z,27.93
2023-02-09T08:00:25.601Z,26.77
2023-02-09T08:02:52.823Z,26.73
2023-02-09T08:06:02.948Z,24.70
2023-02-09T08:08:30.082Z,26.83
2023-02-09T08:11:00.199Z,26.63
2023-02-09T08:13:30.042Z,24.17
2023-02-09T08:16:04.276Z,27.03
2023-02-09T08:18:41.296Z,27.20
2023-02-09T08:21:10.708Z,25.67
2023-02-09T08:23:40.635Z,23.63
2023-02-09T08:26:09.739Z,25.77
2023-02-09T08:28:44.145Z,24.43
2023-02-09T08:31:17.663Z,25.80
2023-02-09T08:33:46.924Z,26.17
2023-02-09T08:36:16.311Z,24.90
2023-02-09T08:38:43.974Z,22.57
2023-02-09T08:41:13.738Z,23.07
2023-02-09T08:43:40.979Z,19.60
2023-02-09T08:46:10.731Z,19.93
2023-02-09T08:48:42.463Z,21.00
2023-02-09T08:51:10.816Z,19.97
2023-02-09T08:53:37.980Z,18.70
2023-02-09T08:56:05.339Z,18.10
2023-02-09T08:58:35.950Z,17.87
2023-02-09T09:01:04.826Z,16.77
2023-02-09T09:03:32.224Z,17.03
2023-02-09T09:06:01.585Z,17.63
2023-02-09T09:08:29.110Z,16.73
2023-02-09T09:10:55.908Z,17.03
2023-02-09T09:13:26.287Z,16.93
2023-02-09T09:15:57.438Z,19.67
2023-02-09T09:18:25.434Z,17.23
2023-02-09T09:20:52.819Z,16.97
2023-02-09T09:23:20.600Z,15.87
2023-02-09T09:25:47.623Z,15.90
2023-02-09T09:28:15.097Z,16.27
2023-02-09T09:30:41.820Z,16.20
2023-02-09T09:33:08.466Z,16.93
2023-02-09T09:35:34.914Z,16.37
2023-02-09T09:38:01.582Z,16.40
2023-02-09T09:40:31.664Z,16.13
2023-02-09T09:43:01.737Z,15.20
2023-02-09T09:45:32.718Z,15.50
2023-02-09T09:47:59.515Z,15.67
2023-02-09T09:50:37.664Z,15.40
2023-02-09T09:53:15.492Z,15.80
2023-02-09T09:55:44.722Z,15.67
2023-02-09T09:58:17.306Z,13.90
2023-02-09T10:00:44.682Z,15.33
2023-02-09T10:03:17.605Z,14.03
2023-02-09T10:05:47.977Z,13.43
2023-02-09T10:08:21.950Z,13.60
2023-02-09T10:11:05.232Z,14.00
2023-02-09T10:13:36.300Z,16.00
2023-02-09T10:16:03.615Z,14.80
2023-02-09T10:18:32.483Z,13.47
2023-02-09T10:21:08.243Z,13.87
2023-02-09T10:23:50.063Z,13.83
2023-02-09T10:26:24.824Z,14.30
2023-02-09T10:28:57.281Z,14.00
2023-02-09T10:31:37.706Z,13.27
2023-02-09T10:34:16.337Z,14.77
2023-02-09T10:36:50.418Z,14.53
2023-02-09T10:39:21.446Z,13.40
2023-02-09T10:41:51.127Z,14.83
2023-02-09T10:44:25.573Z,14.50
2023-02-09T10:47:10.973Z,14.13
2023-02-09T10:49:39.215Z,14.47
2023-02-09T10:52:11.439Z,12.33
2023-02-09T10:54:55.621Z,11.50
2023-02-09T10:57:33.043Z,12.23
2023-02-09T11:00:21.156Z,11.43
2023-02-09T11:02:47.282Z,12.37
2023-02-09T11:05:19.956Z,13.00
2023-02-09T11:08:04.115Z,12.67
2023-02-09T11:10:37.074Z,11.50
2023-02-09T11:13:16.666Z,11.70
2023-02-09T11:15:58.987Z,11.70
2023-02-09T11:18:31.385Z,12.50
2023-02-09T11:21:12.752Z,12.50
2023-02-09T11:23:54.874Z,12.70
2023-02-09T11:26:37.606Z,13.40
2023-02-09T11:29:21.770Z,12.70
2023-02-09T11:32:22.294Z,13.00
2023-02-09T11:35:00.857Z,12.43
2023-02-09T11:37:33.611Z,13.03
2023-02-09T11:40:16.717Z,14.50
2023-02-09T11:42:57.169Z,12.07
2023-02-09T11:45:34.470Z,11.53
2023-02-09T11:48:12.058Z,12.53
2023-02-09T11:50:41.778Z,12.30
2023-02-09T11:53:43.839Z,13.83
2023-02-09T11:56:16.563Z,13.43
2023-02-09T11:58:52.575Z,13.57
2023-02-09T12:01:37.637Z,13.53
2023-02-09T12:04:26.283Z,13.07
2023-02-09T12:07:17.329Z,12.77
2023-02-09T12:09:56.443Z,12.57
2023-02-09T12:12:22.829Z,12.83
2023-02-09T12:15:01.486Z,13.03
2023-02-09T12:17:46.892Z,13.43
2023-02-09T12:20:27.344Z,13.03
2023-02-09T12:23:15.274Z,12.90
2023-02-09T12:26:00.551Z,12.97
2023-02-09T12:28:27.089Z,14.37
2023-02-09T12:30:53.885Z,13.13
2023-02-09T12:33:23.279Z,14.30
2023-02-09T12:36:08.902Z,12.57
2023-02-09T12:39:03.878Z,14.17
2023-02-09T12:41:51.263Z,12.27
2023-02-09T12:44:18.853Z,13.23
2023-02-09T12:46:55.286Z,14.07
2023-02-09T12:49:28.147Z,14.33
2023-02-09T12:52:00.810Z,12.97
2023-02-09T12:54:30.754Z,13.93
2023-02-09T12:57:16.080Z,13.33
2023-02-09T12:59:49.064Z,13.60
2023-02-09T13:02:37.455Z,13.73
2023-02-09T13:05:16.234Z,14.50
2023-02-09T13:08:01.259Z,13.50
2023-02-09T13:10:31.568Z,15.17
2023-02-09T13:13:13.964Z,13.80
2023-02-09T13:16:11.166Z,14.27
2023-02-09T13:19:11.998Z,13.77
2023-02-09T13:21:47.970Z,13.93
2023-02-09T13:24:18.006Z,13.10
2023-02-09T13:26:53.375Z,15.37
2023-02-09T13:29:31.426Z,16.30
2023-02-09T13:32:20.389Z,14.27
2023-02-09T13:34:51.560Z,19.63
2023-02-09T13:37:45.984Z,15.13
2023-02-09T13:40:21.643Z,14.40
2023-02-09T13:42:58.035Z,14.03
2023-02-09T13:45:28.392Z,13.60
2023-02-09T13:47:56.729Z,13.50
2023-02-09T13:50:27.570Z,12.50
2023-02-09T13:52:53.829Z,11.90
2023-02-09T13:55:26.048Z,11.10
2023-02-09T13:58:03.734Z,11.00
2023-02-09T14:00:39.024Z,9.87
2023-02-09T14:03:13.565Z,10.50
2023-02-09T14:05:53.598Z,10.23
2023-02-09T14:08:21.638Z,11.83
2023-02-09T14:11:36.447Z,9.90
2023-02-09T14:14:27.829Z,9.30
2023-02-09T14:17:22.826Z,10.97
2023-02-09T14:19:51.531Z,9.97
2023-02-09T14:22:36.462Z,9.60
2023-02-09T14:25:15.017Z,11.70
2023-02-09T14:27:46.860Z,10.03
2023-02-09T14:30:24.675Z,12.93
2023-02-09T14:32:59.097Z,14.40
2023-02-09T14:35:28.590Z,10.43
2023-02-09T14:37:58.830Z,12.60
2023-02-09T14:40:29.323Z,12.20
2023-02-09T14:42:59.439Z,15.30
2023-02-09T14:45:38.646Z,18.73
2023-02-09T14:48:22.323Z,13.47
2023-02-09T14:50:53.619Z,12.10
2023-02-09T14:53:22.916Z,10.67
2023-02-09T14:55:49.784Z,11.27
2023-02-09T14:58:25.552Z,9.33
2023-02-09T15:00:54.688Z,8.90
2023-02-09T15:03:22.464Z,10.03
2023-02-09T15:05:51.560Z,9.93
2023-02-09T15:08:23.154Z,10.67
2023-02-09T15:10:52.988Z,11.90
2023-02-09T15:13:20.883Z,13.17
2023-02-09T15:15:47.323Z,12.70
2023-02-09T15:18:25.808Z,13.53
2023-02-09T15:20:52.367Z,11.07
2023-02-09T15:23:19.387Z,13.37
2023-02-09T15:25:46.073Z,14.90
2023-02-09T15:28:16.535Z,17.67
2023-02-09T15:30:43.199Z,26.10
2023-02-09T15:33:11.723Z,31.40
2023-02-09T15:35:39.980Z,36.70
2023-02-09T15:38:11.216Z,38.97
2023-02-09T15:41:00.538Z,33.93
2023-02-09T15:43:47.136Z,30.23
2023-02-09T15:46:32.873Z,21.70
2023-02-09T15:49:00.186Z,16.17
2023-02-09T15:51:30.504Z,16.63
2023-02-09T15:54:00.517Z,21.67
2023-02-09T15:56:27.261Z,20.73
2023-02-09T15:58:56.437Z,22.07
2023-02-09T16:01:22.717Z,20.60
2023-02-09T16:03:49.488Z,15.30
2023-02-09T16:06:18.787Z,16.40
2023-02-09T16:08:47.786Z,16.13
2023-02-09T16:11:20.389Z,15.30
2023-02-09T16:13:48.011Z,18.70
2023-02-09T16:16:17.817Z,56.20
2023-02-09T16:18:46.266Z,36.20
2023-02-09T16:21:33.260Z,33.63
2023-02-09T16:24:02.878Z,30.00
2023-02-09T16:26:30.420Z,69.57
2023-02-09T16:28:57.838Z,70.20
2023-02-09T16:31:24.800Z,44.33
2023-02-09T16:33:51.782Z,33.63
2023-02-09T16:36:27.983Z,17.67
2023-02-09T16:38:54.744Z,16.17
2023-02-09T16:41:39.735Z,16.87
2023-02-09T16:44:23.123Z,18.57
2023-02-09T16:46:54.697Z,14.43
2023-02-09T16:49:30.553Z,18.33
2023-02-09T16:52:01.263Z,37.03
2023-02-09T16:54:30.629Z,40.40
2023-02-09T16:56:57.429Z,43.77
2023-02-09T16:59:24.605Z,39.70
2023-02-09T17:01:53.672Z,41.53
2023-02-09T17:04:20.323Z,31.50
2023-02-09T17:06:50.292Z,33.13
2023-02-09T17:09:17.008Z,42.43
2023-02-09T17:11:43.810Z,38.27
2023-02-09T17:14:11.722Z,28.87
2023-02-09T17:16:42.496Z,20.30
2023-02-09T17:19:14.371Z,19.63
2023-02-09T17:21:41.573Z,18.10
2023-02-09T17:24:16.419Z,23.73
2023-02-09T17:26:43.723Z,20.07
2023-02-09T17:29:11.409Z,19.10
2023-02-09T17:31:52.298Z,17.17
2023-02-09T17:34:21.280Z,17.47
2023-02-09T17:36:47.654Z,17.30
2023-02-09T17:39:16.114Z,17.67
2023-02-09T17:41:44.786Z,18.97
2023-02-09T17:44:24.093Z,23.70
2023-02-09T17:46:55.266Z,25.43
2023-02-09T17:49:21.918Z,29.57
2023-02-09T17:51:48.923Z,31.17
2023-02-09T17:54:18.239Z,30.83
2023-02-09T17:56:45.450Z,32.43
2023-02-09T17:59:14.137Z,30.73
2023-02-09T18:01:45.190Z,39.20
2023-02-09T18:04:18.873Z,55.50
2023-02-09T18:06:45.760Z,50.50
2023-02-09T18:09:12.921Z,47.73
2023-02-09T18:11:39.154Z,51.53
2023-02-09T18:14:06.101Z,42.43
2023-02-09T18:16:32.709Z,44.03
2023-02-09T18:18:59.345Z,51.73
2023-02-09T18:21:25.731Z,53.70
2023-02-09T18:23:52.595Z,54.17
2023-02-09T18:26:19.102Z,51.77
2023-02-09T18:28:46.152Z,47.30
2023-02-09T18:31:17.016Z,45.00
2023-02-09T18:33:44.969Z,43.40
2023-02-09T18:36:14.576Z,39.60
2023-02-09T18:38:41.877Z,38.53
2023-02-09T18:41:12.424Z,38.63
2023-02-09T18:43:39.406Z,36.83
2023-02-09T18:46:05.987Z,33.63
2023-02-09T18:48:32.959Z,32.83
2023-02-09T18:50:59.400Z,38.23
2023-02-09T18:53:26.313Z,33.90
2023-02-09T18:55:53.403Z,32.77
2023-02-09T18:58:20.541Z,29.47
2023-02-09T19:00:47.101Z,29.90
2023-02-09T19:03:17.325Z,27.33
2023-02-09T19:05:44.563Z,25.37
2023-02-09T19:08:12.799Z,22.87
2023-02-09T19:10:42.344Z,20.43
2023-02-09T19:13:11.045Z,18.97
2023-02-09T19:15:38.476Z,16.80
2023-02-09T19:18:05.662Z,15.93
2023-02-09T19:20:33.963Z,15.77
2023-02-09T19:23:03.054Z,17.63
2023-02-09T19:25:30.318Z,16.17
2023-02-09T19:27:57.832Z,17.07
2023-02-09T19:30:25.813Z,15.50
2023-02-09T19:32:54.991Z,13.97
2023-02-09T19:35:22.372Z,14.50
2023-02-09T19:37:53.456Z,14.83
2023-02-09T19:40:27.335Z,13.57
2023-02-09T19:42:56.092Z,13.70
2023-02-09T19:45:23.152Z,13.47
2023-02-09T19:47:50.793Z,13.70
2023-02-09T19:50:17.805Z,13.43
2023-02-09T19:52:46.823Z,13.70
2023-02-09T19:55:14.290Z,13.43
2023-02-09T19:57:41.934Z,13.10
2023-02-09T20:00:10.645Z,12.17
2023-02-09T20:02:38.783Z,11.70
2023-02-09T20:05:06.326Z,12.27
2023-02-09T20:07:33.098Z,13.80
2023-02-09T20:10:00.232Z,12.40
2023-02-09T20:12:27.514Z,12.50
2023-02-09T20:14:54.436Z,11.83
2023-02-09T20:17:21.787Z,12.13
2023-02-09T20:19:48.446Z,12.53
2023-02-09T20:22:15.480Z,10.70
2023-02-09T20:24:43.636Z,12.07
2023-02-09T20:27:11.420Z,11.27
2023-02-09T20:29:38.587Z,10.77
2023-02-09T20:32:05.907Z,11.33
2023-02-09T20:34:32.774Z,10.90
2023-02-09T20:36:59.981Z,10.37
2023-02-09T20:39:26.741Z,10.67
2023-02-09T20:42:16.538Z,9.93
2023-02-09T20:45:02.060Z,10.77
2023-02-09T20:47:31.816Z,9.57
2023-02-09T20:49:59.428Z,11.20
2023-02-09T20:52:30.064Z,10.87
2023-02-09T20:54:57.360Z,10.17
2023-02-09T20:57:28.811Z,10.60
2023-02-09T20:59:57.496Z,9.63
2023-02-09T21:02:25.107Z,10.00
2023-02-09T21:04:56.294Z,9.33
2023-02-09T21:07:24.511Z,10.33
2023-02-09T21:10:12.221Z,9.87
2023-02-09T21:12:58.104Z,9.47
2023-02-09T21:15:24.916Z,10.20
2023-02-09T21:17:51.725Z,9.57
2023-02-09T21:20:18.480Z,9.43
2023-02-09T21:22:44.970Z,11.07
2023-02-09T21:25:13.245Z,10.50
2023-02-09T21:27:39.569Z,11.03
2023-02-09T21:30:06.629Z,10.33
2023-02-09T21:32:37.832Z,10.70
2023-02-09T21:35:09.499Z,10.93
2023-02-09T21:37:42.269Z,10.60
2023-02-09T21:40:10.692Z,10.27
2023-02-09T21:42:38.452Z,11.10
2023-02-09T21:45:07.713Z,10.10
2023-02-09T21:47:37.056Z,10.80
2023-02-09T21:50:06.805Z,11.30
2023-02-09T21:52:34.117Z,9.80
2023-02-09T21:55:01.735Z,10.27
2023-02-09T21:57:28.885Z,10.67
2023-02-09T21:59:56.094Z,10.63
2023-02-09T22:02:22.632Z,11.57
2023-02-09T22:04:49.985Z,11.00
2023-02-09T22:07:16.415Z,10.73
2023-02-09T22:09:43.402Z,10.37
2023-02-09T22:12:10.099Z,9.70
2023-02-09T22:14:36.761Z,10.50
2023-02-09T22:17:03.576Z,10.90
2023-02-09T22:19:30.489Z,11.60
2023-02-09T22:21:57.356Z,10.53
2023-02-09T22:24:24.618Z,10.60
2023-02-09T22:26:51.009Z,9.73
2023-02-09T22:29:17.792Z,10.63
2023-02-09T22:31:45.127Z,10.27
2023-02-09T22:34:12.172Z,10.23
2023-02-09T22:36:39.061Z,9.50
2023-02-09T22:39:06.831Z,10.70
2023-02-09T22:41:33.374Z,10.03
2023-02-09T22:44:05.699Z,10.27
2023-02-09T22:46:35.054Z,10.40
2023-02-09T22:49:05.512Z,11.07
2023-02-09T22:51:32.982Z,11.10
2023-02-09T22:54:00.651Z,10.83
2023-02-09T22:56:28.272Z,11.23
2023-02-09T22:58:56.345Z,11.53
2023-02-09T23:01:22.617Z,11.27
2023-02-09T23:03:49.526Z,11.30
2023-02-09T23:06:20.250Z,11.63
2023-02-09T23:08:47.246Z,11.87
2023-02-09T23:11:16.745Z,12.27
2023-02-09T23:13:43.892Z,12.37
2023-02-09T23:16:21.113Z,11.90
2023-02-09T23:18:59.360Z,12.13
2023-02-09T23:21:28.240Z,12.70
2023-02-09T23:23:55.456Z,12.17
2023-02-09T23:26:22.352Z,11.57
2023-02-09T23:28:55.415Z,12.20
2023-02-09T23:31:23.657Z,11.80
2023-02-09T23:33:50.549Z,11.63
2023-02-09T23:36:20.907Z,10.93
2023-02-09T23:38:52.312Z,10.73
2023-02-09T23:41:19.329Z,11.00
2023-02-09T23:43:46.537Z,10.53
2023-02-09T23:46:16.710Z,10.73
2023-02-09T23:48:47.191Z,11.00
2023-02-09T23:51:17.936Z,10.77
2023-02-09T23:53:46.029Z,10.60
2023-02-09T23:56:13.536Z,10.77
2023-02-09T23:58:43.259Z,10.60
